Time;durP1;ratioP1;P1;durP2;ratioP2;P2;SDS_P1;SDS_P2;PMS_P1;PMS_P2;Temp;Humidity;BMP_temperature;BMP_pressure;BME280_temperature;BME280_humidity;BME280_pressure;Samples;Min_cycle;Max_cycle;Signal;HPM_P1;HPM_P2
2020/12/05 00:01:38;;;;;;;31.02;19.75;;;5.10;99.90;;;;;;5083860;28;20233;-79
2020/12/05 00:04:05;;;;;;;30.13;18.85;;;4.90;99.90;;;;;;5084650;28;20259;-78
2020/12/05 00:06:31;;;;;;;33.42;19.58;;;5.10;99.90;;;;;;5078388;28;20225;-78
2020/12/05 00:08:58;;;;;;;31.95;18.90;;;5.10;99.90;;;;;;5078142;28;20212;-78
2020/12/05 00:11:28;;;;;;;26.80;17.25;;;5.00;99.90;;;;;;5078480;28;20293;-78
2020/12/05 00:13:55;;;;;;;29.48;17.98;;;5.20;99.90;;;;;;5079388;28;20201;-78
2020/12/05 00:16:22;;;;;;;31.10;18.58;;;5.00;99.90;;;;;;5078950;28;20218;-78
2020/12/05 00:18:53;;;;;;;37.33;19.65;;;5.00;99.90;;;;;;5078516;28;20206;-78
2020/12/05 00:21:20;;;;;;;29.40;18.55;;;5.10;99.90;;;;;;5079679;28;20213;-78
2020/12/05 00:23:47;;;;;;;34.10;18.83;;;5.20;99.90;;;;;;5079535;28;20205;-78
2020/12/05 00:26:15;;;;;;;27.67;15.90;;;5.20;99.90;;;;;;5078619;28;20232;-78
2020/12/05 00:28:42;;;;;;;30.40;18.05;;;4.90;99.90;;;;;;5078901;28;20201;-79
2020/12/05 00:31:09;;;;;;;29.08;18.10;;;5.10;99.90;;;;;;5079798;28;20202;-78
2020/12/05 00:33:36;;;;;;;30.33;18.92;;;4.80;99.90;;;;;;5102397;22;20220;-76
2020/12/05 00:36:02;;;;;;;28.70;16.75;;;4.70;99.90;;;;;;5099115;28;20267;-76
2020/12/05 00:38:29;;;;;;;29.70;18.55;;;4.90;99.90;;;;;;5092442;28;20212;-76
2020/12/05 00:40:56;;;;;;;35.83;17.90;;;5.10;99.90;;;;;;5091807;28;20205;-76
2020/12/05 00:43:22;;;;;;;31.70;18.83;;;5.10;99.90;;;;;;5092495;28;20235;-75
2020/12/05 00:45:50;;;;;;;31.48;17.70;;;5.20;99.90;;;;;;5092184;28;20217;-75
2020/12/05 00:48:16;;;;;;;34.35;19.08;;;5.30;99.90;;;;;;5092117;28;20208;-76
2020/12/05 00:50:43;;;;;;;31.08;18.40;;;5.10;99.90;;;;;;5091530;28;20236;-75
2020/12/05 00:53:09;;;;;;;32.38;17.65;;;5.10;99.90;;;;;;5091920;28;20217;-75
2020/12/05 00:55:36;;;;;;;31.25;16.60;;;5.50;99.90;;;;;;5091756;28;20436;-75
2020/12/05 00:58:02;;;;;;;29.17;17.42;;;5.50;99.90;;;;;;5092037;28;20205;-75
2020/12/05 01:00:29;;;;;;;35.25;19.60;;;5.40;99.90;;;;;;5088644;28;20639;-75
2020/12/05 01:02:56;;;;;;;29.98;19.35;;;5.20;99.90;;;;;;5099382;28;20233;-75
2020/12/05 01:05:23;;;;;;;33.00;19.50;;;5.20;99.90;;;;;;5106443;28;20210;-75
2020/12/05 01:07:49;;;;;;;33.05;20.05;;;5.10;99.90;;;;;;5091280;28;20224;-75
2020/12/05 01:10:16;;;;;;;36.70;20.05;;;5.30;99.90;;;;;;5099523;28;20203;-76
2020/12/05 01:12:43;;;;;;;33.53;19.70;;;5.10;99.90;;;;;;5091678;28;20236;-75
2020/12/05 01:15:09;;;;;;;31.20;20.15;;;5.20;99.90;;;;;;5091920;28;20202;-76
2020/12/05 01:17:36;;;;;;;31.70;20.13;;;5.20;99.90;;;;;;5091738;28;20209;-75
2020/12/05 01:20:04;;;;;;;39.20;21.55;;;5.30;99.90;;;;;;5101939;28;20697;-77
2020/12/05 01:22:31;;;;;;;30.45;19.55;;;5.30;99.90;;;;;;5091514;28;20225;-76
2020/12/05 01:24:57;;;;;;;29.30;18.38;;;5.30;99.90;;;;;;5091502;28;20247;-76
2020/12/05 01:27:24;;;;;;;31.02;19.33;;;5.20;99.90;;;;;;5091496;28;20232;-76
2020/12/05 01:29:50;;;;;;;29.67;19.15;;;5.10;99.90;;;;;;5091019;28;20308;-76
2020/12/05 01:32:17;;;;;;;30.98;18.35;;;5.30;99.90;;;;;;5091213;28;20220;-76
2020/12/05 01:34:44;;;;;;;31.98;17.83;;;5.30;99.90;;;;;;5092482;28;20520;-75
2020/12/05 01:37:14;;;;;;;32.88;16.52;;;5.20;99.90;;;;;;5091370;28;20223;-76
2020/12/05 01:39:41;;;;;;;30.30;18.02;;;5.30;99.90;;;;;;5090775;28;20220;-76
2020/12/05 01:42:07;;;;;;;30.45;19.50;;;5.30;99.90;;;;;;5090658;28;20201;-76
2020/12/05 01:44:34;;;;;;;27.35;17.15;;;5.20;99.90;;;;;;5090880;28;20213;-76
2020/12/05 01:47:01;;;;;;;28.67;18.48;;;5.00;99.90;;;;;;5091492;28;20217;-76
2020/12/05 01:49:28;;;;;;;27.42;17.63;;;5.00;99.90;;;;;;5090438;28;20205;-76
2020/12/05 01:51:56;;;;;;;26.05;16.00;;;5.10;99.90;;;;;;5090378;28;20236;-76
2020/12/05 01:54:24;;;;;;;34.63;19.52;;;5.10;99.90;;;;;;5090881;28;20647;-76
2020/12/05 01:56:57;;;;;;;31.02;18.98;;;5.20;99.90;;;;;;5090658;28;20520;-76
2020/12/05 01:59:24;;;;;;;28.05;18.08;;;5.20;99.90;;;;;;5090712;28;20286;-76
2020/12/05 02:01:55;;;;;;;29.95;17.85;;;5.20;99.90;;;;;;5090406;28;20228;-76
2020/12/05 02:04:22;;;;;;;32.78;19.52;;;5.30;99.90;;;;;;5090611;28;20205;-76
2020/12/05 02:07:12;;;;;;;27.98;18.65;;;5.20;99.90;;;;;;5090789;28;20261;-76
2020/12/05 02:09:45;;;;;;;33.25;19.05;;;5.10;99.90;;;;;;5095295;28;20280;-75
2020/12/05 02:12:21;;;;;;;29.92;18.33;;;5.30;99.90;;;;;;5090730;28;20205;-75
2020/12/05 02:14:52;;;;;;;27.17;17.02;;;5.30;99.90;;;;;;5090077;28;20203;-75
2020/12/05 02:17:20;;;;;;;28.40;19.42;;;5.40;99.90;;;;;;5090519;28;20208;-75
2020/12/05 02:19:50;;;;;;;31.17;19.23;;;5.10;99.90;;;;;;5089730;28;20231;-75
2020/12/05 02:22:23;;;;;;;29.75;19.05;;;5.10;99.90;;;;;;5090818;28;20613;-75
2020/12/05 02:24:51;;;;;;;28.70;18.00;;;5.20;99.90;;;;;;5090438;28;20258;-75
2020/12/05 02:27:18;;;;;;;28.55;18.30;;;5.10;99.90;;;;;;5090213;28;20254;-75
2020/12/05 02:29:44;;;;;;;28.80;17.90;;;5.20;99.90;;;;;;5089720;28;20233;-75
2020/12/05 02:32:11;;;;;;;27.65;17.90;;;5.10;99.90;;;;;;5090265;28;20212;-75
2020/12/05 02:34:37;;;;;;;23.83;16.27;;;5.30;99.90;;;;;;5090201;28;20209;-75
2020/12/05 02:37:15;;;;;;;26.35;16.40;;;5.50;99.90;;;;;;5090547;28;20205;-75
2020/12/05 02:39:44;;;;;;;22.65;14.82;;;5.30;99.90;;;;;;5089803;28;20208;-75
2020/12/05 02:42:13;;;;;;;19.50;14.20;;;5.20;99.90;;;;;;5089845;28;20236;-75
2020/12/05 02:44:46;;;;;;;18.15;14.02;;;5.10;99.90;;;;;;5089552;28;20300;-75
2020/12/05 02:47:13;;;;;;;21.20;13.50;;;5.00;99.90;;;;;;5077758;28;20253;-75
2020/12/05 02:49:40;;;;;;;20.90;14.10;;;5.10;99.90;;;;;;5071116;28;20304;-75
2020/12/05 02:52:07;;;;;;;17.52;13.07;;;5.00;99.90;;;;;;5089446;28;20213;-75
2020/12/05 02:54:33;;;;;;;19.33;13.13;;;5.10;99.90;;;;;;5089040;28;20198;-75
2020/12/05 02:57:00;;;;;;;18.75;13.48;;;4.90;99.90;;;;;;5089317;28;20601;-73
2020/12/05 02:59:28;;;;;;;18.70;12.35;;;4.90;99.90;;;;;;5089403;28;20209;-73
2020/12/05 03:01:55;;;;;;;17.00;12.38;;;5.00;99.90;;;;;;5089194;28;20248;-73
2020/12/05 03:04:21;;;;;;;19.45;12.43;;;5.00;99.90;;;;;;5089980;28;20213;-73
2020/12/05 03:06:48;;;;;;;18.92;12.90;;;4.90;99.90;;;;;;5089444;28;20325;-74
2020/12/05 03:09:15;;;;;;;16.77;11.90;;;4.90;99.90;;;;;;5092838;28;20200;-74
2020/12/05 03:11:41;;;;;;;16.13;11.30;;;4.80;99.90;;;;;;5103358;28;20337;-74
2020/12/05 03:14:09;;;;;;;16.85;12.02;;;5.10;99.90;;;;;;5089540;28;20244;-74
2020/12/05 03:16:36;;;;;;;17.58;11.73;;;4.80;99.90;;;;;;5088931;28;20318;-74
2020/12/05 03:19:03;;;;;;;17.95;13.82;;;5.00;99.90;;;;;;5088806;28;20205;-74
2020/12/05 03:21:30;;;;;;;17.35;11.68;;;4.70;99.90;;;;;;5088876;28;20205;-74
2020/12/05 03:23:56;;;;;;;17.67;11.98;;;4.80;99.90;;;;;;5090089;28;20228;-74
2020/12/05 03:26:23;;;;;;;17.35;12.10;;;4.70;99.90;;;;;;5088916;28;20691;-74
2020/12/05 03:28:49;;;;;;;17.70;12.88;;;4.70;99.90;;;;;;5088764;28;20255;-74
2020/12/05 03:31:26;;;;;;;15.98;11.43;;;4.80;99.90;;;;;;5088612;28;20201;-74
2020/12/05 03:33:54;;;;;;;17.67;12.10;;;4.80;99.90;;;;;;5092923;28;20718;-74
2020/12/05 03:36:20;;;;;;;16.30;11.80;;;4.80;99.90;;;;;;5092424;28;20197;-74
2020/12/05 03:38:47;;;;;;;16.95;11.82;;;4.80;99.90;;;;;;5092816;28;20257;-74
2020/12/05 03:41:14;;;;;;;19.25;12.45;;;4.70;99.90;;;;;;5092729;28;20197;-75
2020/12/05 03:43:41;;;;;;;17.75;12.35;;;4.60;99.90;;;;;;5093247;28;20282;-75
2020/12/05 03:46:08;;;;;;;20.63;13.52;;;4.70;99.90;;;;;;5093658;28;20306;-75
2020/12/05 03:48:34;;;;;;;17.30;11.80;;;4.50;99.90;;;;;;5092509;28;20212;-75
2020/12/05 03:51:02;;;;;;;20.27;11.75;;;4.70;99.90;;;;;;5092585;28;20254;-75
2020/12/05 03:53:29;;;;;;;17.77;12.27;;;4.70;99.90;;;;;;5092740;28;20239;-75
2020/12/05 03:55:55;;;;;;;17.63;11.10;;;4.60;99.90;;;;;;5092531;28;20208;-75
2020/12/05 03:58:22;;;;;;;14.80;10.90;;;4.70;99.90;;;;;;5092623;28;20209;-75
2020/12/05 04:00:49;;;;;;;16.23;11.85;;;4.80;99.90;;;;;;5092893;28;20205;-75
2020/12/05 04:03:15;;;;;;;22.40;13.00;;;4.70;99.90;;;;;;5092324;28;20756;-75
2020/12/05 04:05:42;;;;;;;18.85;12.80;;;4.80;99.90;;;;;;5092360;28;20242;-75
2020/12/05 04:08:09;;;;;;;16.50;12.05;;;4.80;99.90;;;;;;5092476;28;20213;-74
2020/12/05 04:10:36;;;;;;;21.38;13.18;;;4.70;99.90;;;;;;5101169;28;20230;-75
2020/12/05 04:13:03;;;;;;;21.88;13.55;;;4.90;99.90;;;;;;5092934;28;20247;-75
2020/12/05 04:15:29;;;;;;;19.58;13.20;;;4.90;99.90;;;;;;5092698;28;20337;-75
2020/12/05 04:17:56;;;;;;;19.35;13.65;;;4.70;99.90;;;;;;5091761;28;20247;-75
2020/12/05 04:20:23;;;;;;;18.70;12.15;;;4.90;99.90;;;;;;5092280;28;20666;-74
2020/12/05 04:22:49;;;;;;;18.73;11.90;;;4.80;99.90;;;;;;5092452;28;20312;-74
2020/12/05 04:25:17;;;;;;;15.55;11.60;;;4.80;99.90;;;;;;5091475;28;20212;-74
2020/12/05 04:27:43;;;;;;;15.77;9.65;;;5.00;99.90;;;;;;5092131;28;20539;-75
2020/12/05 04:30:10;;;;;;;17.70;10.32;;;5.20;99.90;;;;;;5091744;28;20655;-74
2020/12/05 04:32:36;;;;;;;14.60;9.73;;;5.00;99.90;;;;;;5091911;28;20262;-74
2020/12/05 04:35:03;;;;;;;16.60;10.82;;;5.00;99.90;;;;;;5091534;28;20207;-74
2020/12/05 04:37:30;;;;;;;12.95;9.18;;;4.80;99.90;;;;;;5091315;28;20229;-74
2020/12/05 04:39:56;;;;;;;14.13;9.50;;;4.80;99.90;;;;;;5091374;28;20201;-74
2020/12/05 04:42:23;;;;;;;14.90;9.95;;;5.10;99.90;;;;;;5091383;28;20225;-75
2020/12/05 04:44:50;;;;;;;14.98;8.95;;;5.30;99.90;;;;;;5091716;28;20232;-75
2020/12/05 04:47:17;;;;;;;16.60;10.30;;;4.90;99.90;;;;;;5091570;28;20229;-74
2020/12/05 04:49:44;;;;;;;14.10;9.50;;;4.80;99.90;;;;;;5091214;28;20201;-74
2020/12/05 04:52:21;;;;;;;14.05;9.35;;;4.90;99.90;;;;;;5090547;28;20197;-74
2020/12/05 04:54:52;;;;;;;13.52;9.20;;;4.80;99.90;;;;;;5091975;28;20200;-74
2020/12/05 04:57:22;;;;;;;12.95;9.85;;;4.80;99.90;;;;;;5091465;28;20284;-74
2020/12/05 04:59:51;;;;;;;13.48;9.88;;;4.70;99.90;;;;;;5091171;28;20205;-74
2020/12/05 05:02:22;;;;;;;14.88;9.70;;;5.10;99.90;;;;;;5091243;28;20697;-74
2020/12/05 05:04:48;;;;;;;14.30;10.15;;;4.90;99.90;;;;;;5091634;28;20627;-74
2020/12/05 05:07:17;;;;;;;13.73;9.18;;;4.90;99.90;;;;;;5091466;28;20403;-74
2020/12/05 05:09:49;;;;;;;12.23;8.65;;;5.10;99.90;;;;;;5099746;28;20234;-74
2020/12/05 05:12:30;;;;;;;12.90;9.95;;;5.20;99.90;;;;;;5101699;28;20205;-74
2020/12/05 05:14:57;;;;;;;12.20;9.10;;;5.30;99.90;;;;;;5092477;28;20205;-74
2020/12/05 05:17:24;;;;;;;13.55;9.18;;;5.30;99.90;;;;;;5091536;28;20193;-74
2020/12/05 05:19:51;;;;;;;11.25;8.57;;;5.40;99.90;;;;;;5090808;28;20205;-74
2020/12/05 05:22:22;;;;;;;13.75;8.63;;;5.40;99.90;;;;;;5091574;28;20256;-74
2020/12/05 05:25:02;;;;;;;11.70;7.97;;;5.10;99.90;;;;;;5091398;28;20239;-74
2020/12/05 05:27:28;;;;;;;11.65;8.45;;;5.10;99.90;;;;;;5091361;28;20265;-74
2020/12/05 05:30:08;;;;;;;13.88;9.13;;;5.20;99.90;;;;;;5091026;28;20668;-74
2020/12/05 05:32:43;;;;;;;13.27;9.00;;;5.00;99.90;;;;;;5091161;28;20306;-74
2020/12/05 05:35:12;;;;;;;11.45;8.00;;;5.10;99.90;;;;;;5091316;28;20205;-74
2020/12/05 05:37:40;;;;;;;12.82;9.05;;;4.80;99.90;;;;;;5091130;28;20537;-74
2020/12/05 05:40:08;;;;;;;13.30;9.00;;;5.00;99.90;;;;;;5090659;28;20740;-73
2020/12/05 05:42:36;;;;;;;13.27;9.13;;;5.10;99.90;;;;;;5091190;28;20256;-74
2020/12/05 05:45:20;;;;;;;14.45;9.35;;;4.90;99.90;;;;;;5091231;28;20647;-74
2020/12/05 05:47:49;;;;;;;12.02;8.85;;;4.90;99.90;;;;;;5090729;28;20252;-74
2020/12/05 05:50:24;;;;;;;11.25;8.20;;;5.00;99.90;;;;;;5090924;28;20220;-74
2020/12/05 05:52:55;;;;;;;12.05;8.13;;;5.20;99.90;;;;;;5090730;28;20310;-74
2020/12/05 05:55:22;;;;;;;14.27;9.15;;;5.10;99.90;;;;;;5090110;28;20676;-74
2020/12/05 05:57:49;;;;;;;13.35;8.35;;;5.10;99.90;;;;;;5090667;28;20205;-74
2020/12/05 06:00:16;;;;;;;11.98;8.38;;;5.10;99.90;;;;;;5091014;28;20205;-73
2020/12/05 06:02:54;;;;;;;11.63;7.97;;;5.10;99.90;;;;;;5091010;28;20229;-74
2020/12/05 06:05:27;;;;;;;9.98;7.80;;;5.20;99.90;;;;;;5090549;28;20209;-74
2020/12/05 06:07:55;;;;;;;13.45;8.73;;;5.10;99.90;;;;;;5090132;28;20674;-74
2020/12/05 06:10:22;;;;;;;14.35;8.68;;;4.90;99.90;;;;;;5103961;28;20268;-73
2020/12/05 06:12:53;;;;;;;13.80;8.43;;;4.90;99.90;;;;;;5110959;28;20285;-73
2020/12/05 06:15:20;;;;;;;10.40;7.75;;;5.10;99.90;;;;;;5111249;28;20595;-74
2020/12/05 06:17:48;;;;;;;13.52;8.00;;;5.00;99.90;;;;;;5110784;28;20200;-74
2020/12/05 06:20:16;;;;;;;12.45;8.80;;;5.10;99.90;;;;;;5103335;28;20197;-74
2020/12/05 06:22:49;;;;;;;11.25;8.02;;;5.20;99.90;;;;;;5089919;28;20228;-74
2020/12/05 06:25:16;;;;;;;13.07;8.32;;;5.10;99.90;;;;;;5090551;28;20212;-74
2020/12/05 06:27:47;;;;;;;11.27;7.97;;;5.00;99.90;;;;;;5089874;28;20228;-74
2020/12/05 06:30:14;;;;;;;11.63;7.90;;;4.80;99.90;;;;;;5089978;28;20255;-74
2020/12/05 06:32:43;;;;;;;12.60;8.32;;;5.00;99.90;;;;;;5090344;28;20805;-74
2020/12/05 06:35:35;;;;;;;10.63;7.32;;;4.90;99.90;;;;;;5089773;28;20202;-74
2020/12/05 06:38:03;;;;;;;13.07;7.93;;;4.90;99.90;;;;;;5089851;28;20209;-74
2020/12/05 06:40:39;;;;;;;10.35;6.85;;;4.90;99.90;;;;;;5090489;28;20250;-74
2020/12/05 06:43:12;;;;;;;11.50;7.22;;;5.00;99.90;;;;;;5090486;28;20229;-75
2020/12/05 06:45:40;;;;;;;12.05;7.88;;;5.00;99.90;;;;;;5089891;28;20266;-74
2020/12/05 06:48:34;;;;;;;12.68;7.40;;;5.00;99.90;;;;;;5090174;28;20209;-75
2020/12/05 06:51:02;;;;;;;11.20;7.20;;;5.00;99.90;;;;;;5091849;28;20201;-75
2020/12/05 06:53:30;;;;;;;10.80;7.53;;;4.90;99.90;;;;;;5091492;28;20260;-74
2020/12/05 06:55:57;;;;;;;9.25;6.95;;;4.60;99.90;;;;;;5090144;28;20202;-74
2020/12/05 06:58:28;;;;;;;8.60;6.63;;;4.80;99.90;;;;;;5090315;28;20263;-74
2020/12/05 07:00:56;;;;;;;10.73;7.07;;;4.70;99.90;;;;;;5090073;28;20232;-75
2020/12/05 07:03:30;;;;;;;9.85;6.60;;;4.70;99.90;;;;;;5091750;28;20703;-75
2020/12/05 07:06:06;;;;;;;11.80;6.82;;;5.00;99.90;;;;;;5092963;28;20228;-74
2020/12/05 07:08:37;;;;;;;12.18;6.78;;;4.90;99.90;;;;;;5091103;28;20246;-74
2020/12/05 07:11:07;;;;;;;9.40;6.18;;;5.00;99.90;;;;;;5092511;28;20208;-74
2020/12/05 07:13:44;;;;;;;8.15;5.55;;;4.80;99.90;;;;;;5090722;28;20232;-74
2020/12/05 07:16:12;;;;;;;9.65;5.72;;;4.60;99.90;;;;;;5089441;28;20205;-74
2020/12/05 07:18:40;;;;;;;11.63;7.07;;;4.70;99.90;;;;;;5088224;28;20254;-74
2020/12/05 07:21:07;;;;;;;12.00;6.22;;;4.80;99.90;;;;;;5089168;28;20204;-74
2020/12/05 07:23:35;;;;;;;7.60;5.40;;;4.90;99.90;;;;;;5089153;28;20228;-74
2020/12/05 07:26:02;;;;;;;10.73;6.60;;;5.00;99.90;;;;;;5088421;28;20228;-74
2020/12/05 07:28:29;;;;;;;7.90;5.50;;;5.10;99.90;;;;;;5088896;28;20300;-75
2020/12/05 07:30:56;;;;;;;10.00;5.28;;;4.90;99.90;;;;;;5089074;28;20588;-75
2020/12/05 07:33:23;;;;;;;8.10;5.10;;;4.90;99.90;;;;;;5088756;28;20316;-74
2020/12/05 07:36:00;;;;;;;9.65;5.53;;;4.90;99.90;;;;;;5089397;28;20204;-74
2020/12/05 07:38:29;;;;;;;9.73;5.95;;;4.90;99.90;;;;;;5089162;28;20250;-74
2020/12/05 07:40:57;;;;;;;8.90;5.38;;;4.80;99.90;;;;;;5088805;28;20209;-74
2020/12/05 07:43:24;;;;;;;9.40;5.97;;;5.00;99.90;;;;;;5072214;28;20704;-74
2020/12/05 07:45:52;;;;;;;8.23;6.28;;;4.90;99.90;;;;;;5081960;28;20695;-74
2020/12/05 07:48:20;;;;;;;8.93;6.20;;;4.80;99.90;;;;;;5090203;28;20652;-74
2020/12/05 07:50:48;;;;;;;7.18;5.15;;;4.70;99.90;;;;;;5094843;28;20222;-75
2020/12/05 07:53:27;;;;;;;9.15;5.75;;;4.90;99.90;;;;;;5089471;28;20285;-74
2020/12/05 07:55:54;;;;;;;9.27;5.82;;;4.80;99.90;;;;;;5089888;28;20201;-74
2020/12/05 07:58:22;;;;;;;6.80;4.88;;;4.80;99.90;;;;;;5088806;28;20201;-74
2020/12/05 08:01:00;;;;;;;7.40;5.03;;;4.80;99.90;;;;;;5091560;28;20203;-74
2020/12/05 08:04:01;;;;;;;7.15;5.30;;;4.80;99.90;;;;;;5087647;28;20298;-75
2020/12/05 08:06:47;;;;;;;18.48;10.68;;;4.80;99.90;;;;;;5089277;28;20224;-74
2020/12/05 08:09:22;;;;;;;8.07;4.82;;;4.70;99.90;;;;;;5085570;28;20230;-74
2020/12/05 08:11:52;;;;;;;8.13;5.10;;;4.90;99.90;;;;;;5097552;28;20196;-75
2020/12/05 08:14:20;;;;;;;8.35;4.97;;;4.80;99.90;;;;;;5097408;28;20229;-75
2020/12/05 08:16:48;;;;;;;9.57;6.85;;;5.00;99.90;;;;;;5084380;28;20266;-73
2020/12/05 08:19:14;;;;;;;5.63;4.28;;;5.00;99.90;;;;;;5091467;28;20205;-72
2020/12/05 08:21:42;;;;;;;6.13;4.45;;;4.80;99.90;;;;;;5092831;28;20816;-73
2020/12/05 08:24:09;;;;;;;8.50;4.38;;;5.00;99.90;;;;;;5093264;28;20332;-74
2020/12/05 08:26:36;;;;;;;6.15;4.00;;;5.20;99.90;;;;;;5082721;28;20276;-72
2020/12/05 08:29:04;;;;;;;7.88;4.13;;;5.50;99.90;;;;;;5087714;28;20257;-79
2020/12/05 08:31:32;;;;;;;7.38;3.95;;;5.30;99.90;;;;;;5085594;28;20247;-77
2020/12/05 08:33:59;;;;;;;6.25;4.20;;;5.40;99.90;;;;;;5077035;28;20248;-77
2020/12/05 08:36:31;;;;;;;6.93;4.05;;;5.20;99.90;;;;;;5073364;28;20198;-77
2020/12/05 08:39:01;;;;;;;9.50;4.30;;;5.20;99.90;;;;;;5084444;28;20296;-76
2020/12/05 08:41:28;;;;;;;7.15;5.05;;;5.30;99.90;;;;;;5081034;28;20278;-76
2020/12/05 08:43:55;;;;;;;9.35;4.70;;;5.30;99.90;;;;;;5092814;28;20623;-76
2020/12/05 08:46:22;;;;;;;7.35;4.50;;;5.30;99.90;;;;;;5082122;28;20221;-76
2020/12/05 08:48:50;;;;;;;6.25;3.47;;;5.30;99.90;;;;;;5074572;28;20221;-77
2020/12/05 08:51:25;;;;;;;6.50;5.10;;;5.40;99.90;;;;;;5092582;28;20607;-77
2020/12/05 08:54:03;;;;;;;8.80;4.07;;;5.50;99.90;;;;;;5084781;28;20228;-76
2020/12/05 08:56:29;;;;;;;10.65;3.92;;;5.40;99.90;;;;;;5091340;28;20201;-74
2020/12/05 08:58:56;;;;;;;10.18;4.40;;;5.60;99.90;;;;;;5081698;28;20258;-76
2020/12/05 09:01:34;;;;;;;7.55;4.53;;;5.80;99.90;;;;;;5081441;28;20198;-78
2020/12/05 09:04:02;;;;;;;6.70;4.20;;;6.00;99.90;;;;;;5078724;28;20577;-76
2020/12/05 09:06:28;;;;;;;6.95;3.35;;;6.00;99.90;;;;;;5090831;28;20217;-76
2020/12/05 09:08:55;;;;;;;9.27;3.55;;;6.00;99.90;;;;;;5085571;28;20201;-78
2020/12/05 09:11:22;;;;;;;7.18;3.83;;;6.10;99.90;;;;;;5095572;28;20258;-75
2020/12/05 09:13:49;;;;;;;6.57;3.45;;;6.40;99.90;;;;;;5094015;28;20224;-74
2020/12/05 09:16:16;;;;;;;6.85;3.80;;;6.10;99.90;;;;;;5094625;28;20201;-74
2020/12/05 09:18:43;;;;;;;6.68;3.88;;;5.90;99.90;;;;;;5093381;28;20213;-75
2020/12/05 09:21:16;;;;;;;5.28;3.25;;;5.70;99.90;;;;;;5094558;28;20620;-74
2020/12/05 09:23:44;;;;;;;7.22;4.70;;;5.80;99.90;;;;;;5101252;28;20274;-74
2020/12/05 09:26:10;;;;;;;11.15;4.88;;;6.00;99.90;;;;;;5097253;28;20228;-74
2020/12/05 09:28:37;;;;;;;7.38;3.50;;;6.20;99.90;;;;;;5091715;28;20277;-74
2020/12/05 09:31:09;;;;;;;6.20;3.35;;;6.10;99.90;;;;;;5095556;28;20205;-74
2020/12/05 09:33:36;;;;;;;6.05;3.67;;;6.20;99.90;;;;;;5095777;28;20278;-75
2020/12/05 09:36:04;;;;;;;5.13;3.33;;;6.20;99.90;;;;;;5096090;28;20297;-75
2020/12/05 09:38:31;;;;;;;6.05;3.90;;;6.00;99.90;;;;;;5091860;28;20211;-75
2020/12/05 09:40:58;;;;;;;6.20;3.72;;;6.30;99.90;;;;;;5092315;28;20209;-75
2020/12/05 09:43:25;;;;;;;5.65;3.28;;;6.30;99.90;;;;;;5091636;28;20240;-75
2020/12/05 09:45:51;;;;;;;4.80;3.10;;;6.40;99.90;;;;;;5092124;28;20209;-75
2020/12/05 09:48:18;;;;;;;10.18;4.03;;;6.20;99.90;;;;;;5091420;28;20699;-75
2020/12/05 09:50:45;;;;;;;6.47;3.65;;;6.60;99.90;;;;;;5091896;28;20220;-75
2020/12/05 09:53:11;;;;;;;7.45;4.05;;;6.30;99.90;;;;;;5112746;28;20650;-75
2020/12/05 09:55:38;;;;;;;6.68;4.68;;;6.40;99.90;;;;;;5095291;28;20205;-75
2020/12/05 09:58:05;;;;;;;10.77;5.47;;;6.10;99.90;;;;;;5091682;28;20221;-74
2020/12/05 10:00:32;;;;;;;7.95;5.20;;;6.00;99.90;;;;;;5092804;28;20211;-75
2020/12/05 10:02:59;;;;;;;7.88;4.60;;;6.00;99.90;;;;;;5093311;28;20295;-77
2020/12/05 10:05:25;;;;;;;7.35;4.68;;;5.90;99.90;;;;;;5092206;28;20205;-76
2020/12/05 10:07:52;;;;;;;7.72;4.80;;;6.00;99.90;;;;;;5109213;28;20224;-76
2020/12/05 10:10:19;;;;;;;9.60;5.13;;;5.90;99.90;;;;;;5099068;28;20201;-76
2020/12/05 10:12:46;;;;;;;8.52;5.00;;;5.70;99.90;;;;;;5092325;28;20221;-76
2020/12/05 10:15:14;;;;;;;9.27;5.68;;;5.90;99.90;;;;;;5091344;28;20209;-82
2020/12/05 10:17:41;;;;;;;9.80;6.32;;;5.80;99.90;;;;;;5091077;28;20201;-77
2020/12/05 10:20:08;;;;;;;8.82;6.40;;;6.00;99.90;;;;;;5088600;28;20201;-77
2020/12/05 10:22:36;;;;;;;9.20;6.22;;;6.00;99.90;;;;;;5092641;28;20282;-77
2020/12/05 10:25:03;;;;;;;11.20;6.57;;;5.70;99.90;;;;;;5092561;28;20201;-77
2020/12/05 10:27:30;;;;;;;8.45;5.97;;;5.80;99.90;;;;;;5082748;28;20237;-77
2020/12/05 10:29:57;;;;;;;8.23;5.90;;;5.70;99.90;;;;;;5090246;28;20209;-75
2020/12/05 10:32:24;;;;;;;10.05;6.72;;;5.70;99.90;;;;;;5090980;28;20221;-76
2020/12/05 10:34:50;;;;;;;8.93;5.57;;;5.90;99.90;;;;;;5090427;28;20312;-76
2020/12/05 10:37:17;;;;;;;11.15;7.40;;;5.90;99.90;;;;;;5090527;28;20217;-76
2020/12/05 10:39:44;;;;;;;9.35;7.00;;;5.90;99.90;;;;;;5090900;28;20203;-75
2020/12/05 10:42:10;;;;;;;9.68;6.15;;;6.00;99.90;;;;;;5090473;28;20197;-75
2020/12/05 10:44:37;;;;;;;10.82;6.88;;;6.00;99.90;;;;;;5092279;28;20205;-79
2020/12/05 10:47:04;;;;;;;11.27;7.20;;;5.80;99.90;;;;;;5094303;28;20611;-78
2020/12/05 10:49:31;;;;;;;10.35;6.93;;;5.80;99.90;;;;;;5096651;28;20289;-76
2020/12/05 10:51:57;;;;;;;10.15;6.43;;;5.70;99.90;;;;;;5090813;28;20213;-76
2020/12/05 10:54:24;;;;;;;8.95;6.25;;;5.90;99.90;;;;;;5090787;28;20198;-76
2020/12/05 10:56:51;;;;;;;6.50;4.88;;;5.60;99.90;;;;;;5091936;28;20197;-76
2020/12/05 10:59:17;;;;;;;11.35;6.00;;;5.80;99.90;;;;;;5092150;28;20202;-76
2020/12/05 11:01:44;;;;;;;7.70;5.60;;;5.80;99.90;;;;;;5092423;28;20201;-76
2020/12/05 11:04:11;;;;;;;9.70;6.72;;;6.10;99.90;;;;;;5100047;28;20231;-74
2020/12/05 11:06:38;;;;;;;7.85;5.75;;;6.40;99.90;;;;;;5089057;28;20752;-75
2020/12/05 11:09:04;;;;;;;11.93;8.90;;;6.20;99.90;;;;;;5091089;28;20205;-75
2020/12/05 11:11:31;;;;;;;9.93;6.75;;;6.00;99.90;;;;;;5091167;28;20652;-75
2020/12/05 11:13:57;;;;;;;9.52;6.15;;;6.10;99.90;;;;;;5086192;28;20221;-76
2020/12/05 11:16:24;;;;;;;11.65;7.05;;;6.30;99.90;;;;;;5090894;28;20217;-74
2020/12/05 11:18:52;;;;;;;10.50;7.32;;;6.10;99.90;;;;;;5090641;28;20232;-74
2020/12/05 11:21:20;;;;;;;8.60;6.70;;;6.10;99.90;;;;;;5090154;28;20197;-74
2020/12/05 11:23:46;;;;;;;9.48;6.97;;;6.50;99.90;;;;;;5089588;28;20256;-74
2020/12/05 11:26:20;;;;;;;9.18;6.93;;;6.60;99.90;;;;;;5091455;28;20205;-74
2020/12/05 11:28:46;;;;;;;10.10;7.32;;;7.00;99.90;;;;;;5090209;28;20209;-74
2020/12/05 11:31:13;;;;;;;7.72;6.50;;;6.90;99.90;;;;;;5090933;28;20273;-75
2020/12/05 11:33:39;;;;;;;12.63;8.00;;;6.90;99.90;;;;;;5090246;28;20262;-75
2020/12/05 11:36:06;;;;;;;11.40;7.28;;;6.70;99.90;;;;;;5085918;28;20274;-75
2020/12/05 11:38:33;;;;;;;9.25;7.28;;;6.50;99.90;;;;;;5090877;28;20631;-75
2020/12/05 11:41:00;;;;;;;10.80;6.88;;;6.60;99.90;;;;;;5091525;28;20300;-74
2020/12/05 11:43:27;;;;;;;11.20;7.80;;;6.80;99.90;;;;;;5092856;28;20229;-76
2020/12/05 11:45:53;;;;;;;13.85;8.10;;;6.90;99.90;;;;;;5090955;28;20219;-75
2020/12/05 11:48:20;;;;;;;11.60;8.02;;;6.60;99.90;;;;;;5090297;28;20307;-77
2020/12/05 11:50:46;;;;;;;12.90;8.80;;;6.50;99.90;;;;;;5091401;28;20229;-73
2020/12/05 11:53:13;;;;;;;13.75;9.02;;;6.60;99.90;;;;;;5091920;28;20221;-74
2020/12/05 11:55:40;;;;;;;12.50;8.75;;;6.50;99.90;;;;;;5094890;28;20197;-73
2020/12/05 11:58:07;;;;;;;10.20;7.57;;;6.50;99.90;;;;;;5094748;28;20228;-74
2020/12/05 12:00:34;;;;;;;11.45;8.15;;;6.50;99.90;;;;;;5095707;28;20289;-74
2020/12/05 12:03:00;;;;;;;12.18;8.90;;;6.60;99.90;;;;;;5096543;28;20243;-75
2020/12/05 12:05:27;;;;;;;9.32;6.25;;;6.50;99.90;;;;;;5095817;28;20204;-75
2020/12/05 12:07:53;;;;;;;13.07;8.30;;;6.60;99.90;;;;;;5094359;28;20225;-74
2020/12/05 12:10:20;;;;;;;13.35;8.82;;;6.60;99.90;;;;;;5094300;28;20197;-75
2020/12/05 12:12:47;;;;;;;11.18;8.60;;;6.60;99.90;;;;;;5094267;28;20232;-75
2020/12/05 12:15:18;;;;;;;10.65;8.38;;;6.90;99.90;;;;;;5093736;28;20239;-74
2020/12/05 12:17:44;;;;;;;11.98;8.85;;;7.00;99.90;;;;;;5094244;28;20257;-74
2020/12/05 12:20:11;;;;;;;13.88;8.57;;;6.80;99.90;;;;;;5093040;28;20205;-75
2020/12/05 12:22:41;;;;;;;11.93;9.25;;;6.70;99.90;;;;;;5094345;28;20228;-75
2020/12/05 12:25:07;;;;;;;13.15;7.88;;;7.20;99.90;;;;;;5093664;28;20205;-74
2020/12/05 12:27:34;;;;;;;12.43;8.18;;;7.00;99.90;;;;;;5091297;28;20226;-75
2020/12/05 12:30:01;;;;;;;15.60;10.00;;;6.90;99.90;;;;;;5093946;28;20626;-74
2020/12/05 12:32:28;;;;;;;13.40;8.60;;;6.70;99.90;;;;;;5094357;28;20229;-73
2020/12/05 12:34:54;;;;;;;13.80;9.10;;;6.60;99.90;;;;;;5103787;28;20254;-75
2020/12/05 12:37:21;;;;;;;10.90;8.60;;;6.90;99.90;;;;;;5093883;28;20259;-75
2020/12/05 12:39:47;;;;;;;11.63;8.52;;;6.80;99.90;;;;;;5093352;28;20576;-75
2020/12/05 12:42:14;;;;;;;8.85;6.97;;;6.80;99.90;;;;;;5093678;28;20229;-75
2020/12/05 12:44:40;;;;;;;12.90;7.95;;;6.90;99.90;;;;;;5092932;28;20585;-75
2020/12/05 12:47:13;;;;;;;9.25;7.43;;;6.90;99.90;;;;;;5093208;28;20225;-75
2020/12/05 12:49:40;;;;;;;10.07;7.25;;;6.90;99.90;;;;;;5093420;28;20197;-75
2020/12/05 12:52:07;;;;;;;10.02;7.30;;;6.90;99.90;;;;;;5093715;28;20213;-75